sensor_id;sensor_type;location;lat;lon;timestamp;temperature;humidity
39315;DHT22;28703;44.412;11.918;2023-07-30T00:01:34;27.90;78.70
39315;DHT22;28703;44.412;11.918;2023-07-30T00:04:00;27.80;78.80
39315;DHT22;28703;44.412;11.918;2023-07-30T00:06:25;27.80;78.80
39315;DHT22;28703;44.412;11.918;2023-07-30T00:08:51;27.80;79.00
39315;DHT22;28703;44.412;11.918;2023-07-30T00:11:17;27.70;79.10
39315;DHT22;28703;44.412;11.918;2023-07-30T00:13:43;27.60;79.20
39315;DHT22;28703;44.412;11.918;2023-07-30T00:16:09;27.60;79.40
39315;DHT22;28703;44.412;11.918;2023-07-30T00:18:35;27.50;79.50
39315;DHT22;28703;44.412;11.918;2023-07-30T00:21:00;27.50;79.70
39315;DHT22;28703;44.412;11.918;2023-07-30T00:23:26;27.40;79.70
39315;DHT22;28703;44.412;11.918;2023-07-30T00:25:53;27.40;79.90
39315;DHT22;28703;44.412;11.918;2023-07-30T00:28:19;27.30;80.40
39315;DHT22;28703;44.412;11.918;2023-07-30T00:30:46;27.20;80.60
39315;DHT22;28703;44.412;11.918;2023-07-30T00:33:12;27.20;81.00
39315;DHT22;28703;44.412;11.918;2023-07-30T00:35:38;27.20;81.20
39315;DHT22;28703;44.412;11.918;2023-07-30T00:38:07;27.10;81.30
39315;DHT22;28703;44.412;11.918;2023-07-30T00:40:39;27.10;81.50
39315;DHT22;28703;44.412;11.918;2023-07-30T00:43:05;27.00;81.60
39315;DHT22;28703;44.412;11.918;2023-07-30T00:45:31;27.00;81.80
39315;DHT22;28703;44.412;11.918;2023-07-30T00:47:57;27.00;81.90
39315;DHT22;28703;44.412;11.918;2023-07-30T00:50:23;26.90;81.90
39315;DHT22;28703;44.412;11.918;2023-07-30T00:52:49;26.90;82.00
39315;DHT22;28703;44.412;11.918;2023-07-30T00:55:16;26.90;82.00
39315;DHT22;28703;44.412;11.918;2023-07-30T00:57:42;27.00;82.10
39315;DHT22;28703;44.412;11.918;2023-07-30T01:00:08;27.00;82.00
39315;DHT22;28703;44.412;11.918;2023-07-30T01:02:36;27.00;82.10
39315;DHT22;28703;44.412;11.918;2023-07-30T01:05:02;27.00;82.10
39315;DHT22;28703;44.412;11.918;2023-07-30T01:07:31;27.00;82.20
39315;DHT22;28703;44.412;11.918;2023-07-30T01:09:58;27.00;82.30
39315;DHT22;28703;44.412;11.918;2023-07-30T01:12:25;27.00;82.30
39315;DHT22;28703;44.412;11.918;2023-07-30T01:14:52;27.00;82.40
39315;DHT22;28703;44.412;11.918;2023-07-30T01:17:22;27.00;82.50
39315;DHT22;28703;44.412;11.918;2023-07-30T01:19:48;27.00;82.50
39315;DHT22;28703;44.412;11.918;2023-07-30T01:22:16;27.00;82.40
39315;DHT22;28703;44.412;11.918;2023-07-30T01:24:42;27.00;82.40
39315;DHT22;28703;44.412;11.918;2023-07-30T01:27:12;27.00;82.40
39315;DHT22;28703;44.412;11.918;2023-07-30T01:32:11;27.00;82.40
39315;DHT22;28703;44.412;11.918;2023-07-30T01:34:38;27.00;82.50
39315;DHT22;28703;44.412;11.918;2023-07-30T01:37:05;27.00;82.40
39315;DHT22;28703;44.412;11.918;2023-07-30T01:39:36;27.00;82.40
39315;DHT22;28703;44.412;11.918;2023-07-30T01:42:04;27.00;82.40
39315;DHT22;28703;44.412;11.918;2023-07-30T01:44:30;27.00;82.40
39315;DHT22;28703;44.412;11.918;2023-07-30T01:46:55;27.00;82.50
39315;DHT22;28703;44.412;11.918;2023-07-30T01:49:21;27.00;82.50
39315;DHT22;28703;44.412;11.918;2023-07-30T01:51:48;27.00;82.60
39315;DHT22;28703;44.412;11.918;2023-07-30T01:54:14;27.00;82.60
39315;DHT22;28703;44.412;11.918;2023-07-30T01:56:40;26.90;82.60
39315;DHT22;28703;44.412;11.918;2023-07-30T01:59:06;26.90;82.70
39315;DHT22;28703;44.412;11.918;2023-07-30T02:01:32;26.90;82.70
39315;DHT22;28703;44.412;11.918;2023-07-30T02:03:57;26.90;82.80
39315;DHT22;28703;44.412;11.918;2023-07-30T02:06:23;26.90;83.10
39315;DHT22;28703;44.412;11.918;2023-07-30T02:08:49;26.90;83.00
39315;DHT22;28703;44.412;11.918;2023-07-30T02:11:15;26.90;83.00
39315;DHT22;28703;44.412;11.918;2023-07-30T02:13:41;26.90;83.30
39315;DHT22;28703;44.412;11.918;2023-07-30T02:16:08;26.90;83.60
39315;DHT22;28703;44.412;11.918;2023-07-30T02:18:33;26.90;83.70
39315;DHT22;28703;44.412;11.918;2023-07-30T02:20:59;26.90;83.80
39315;DHT22;28703;44.412;11.918;2023-07-30T02:23:25;26.90;84.00
39315;DHT22;28703;44.412;11.918;2023-07-30T02:25:51;26.80;84.20
39315;DHT22;28703;44.412;11.918;2023-07-30T02:28:17;26.80;84.50
39315;DHT22;28703;44.412;11.918;2023-07-30T02:30:43;26.80;84.70
39315;DHT22;28703;44.412;11.918;2023-07-30T02:33:09;26.80;84.70
39315;DHT22;28703;44.412;11.918;2023-07-30T02:35:35;26.80;85.00
39315;DHT22;28703;44.412;11.918;2023-07-30T02:38:01;26.70;85.80
39315;DHT22;28703;44.412;11.918;2023-07-30T02:40:27;26.70;86.40
39315;DHT22;28703;44.412;11.918;2023-07-30T02:42:53;26.70;86.40
39315;DHT22;28703;44.412;11.918;2023-07-30T02:45:19;26.60;87.20
39315;DHT22;28703;44.412;11.918;2023-07-30T02:47:45;26.60;87.10
39315;DHT22;28703;44.412;11.918;2023-07-30T02:50:11;26.60;87.60
39315;DHT22;28703;44.412;11.918;2023-07-30T02:52:36;26.50;88.30
39315;DHT22;28703;44.412;11.918;2023-07-30T02:55:02;26.50;88.20
39315;DHT22;28703;44.412;11.918;2023-07-30T02:57:28;26.50;88.90
39315;DHT22;28703;44.412;11.918;2023-07-30T02:59:54;26.50;88.20
39315;DHT22;28703;44.412;11.918;2023-07-30T03:02:20;26.50;88.10
39315;DHT22;28703;44.412;11.918;2023-07-30T03:04:46;26.50;88.20
39315;DHT22;28703;44.412;11.918;2023-07-30T03:07:12;26.50;88.30
39315;DHT22;28703;44.412;11.918;2023-07-30T03:09:38;26.50;88.30
39315;DHT22;28703;44.412;11.918;2023-07-30T03:12:04;26.50;88.50
39315;DHT22;28703;44.412;11.918;2023-07-30T03:14:30;26.40;88.90
39315;DHT22;28703;44.412;11.918;2023-07-30T03:16:56;26.30;89.20
39315;DHT22;28703;44.412;11.918;2023-07-30T03:19:22;26.30;89.30
39315;DHT22;28703;44.412;11.918;2023-07-30T03:21:48;26.30;89.70
39315;DHT22;28703;44.412;11.918;2023-07-30T03:24:14;26.20;89.50
39315;DHT22;28703;44.412;11.918;2023-07-30T03:26:39;26.30;89.60
39315;DHT22;28703;44.412;11.918;2023-07-30T03:29:06;26.30;89.60
39315;DHT22;28703;44.412;11.918;2023-07-30T03:31:31;26.30;89.70
39315;DHT22;28703;44.412;11.918;2023-07-30T03:33:57;26.30;89.90
39315;DHT22;28703;44.412;11.918;2023-07-30T03:36:23;26.30;90.00
39315;DHT22;28703;44.412;11.918;2023-07-30T03:38:49;26.30;90.10
39315;DHT22;28703;44.412;11.918;2023-07-30T03:41:15;26.30;90.00
39315;DHT22;28703;44.412;11.918;2023-07-30T03:43:41;26.30;90.00
39315;DHT22;28703;44.412;11.918;2023-07-30T03:46:06;26.20;90.00
39315;DHT22;28703;44.412;11.918;2023-07-30T03:48:32;26.20;90.00
39315;DHT22;28703;44.412;11.918;2023-07-30T03:50:58;26.20;90.00
39315;DHT22;28703;44.412;11.918;2023-07-30T03:53:24;26.10;90.00
39315;DHT22;28703;44.412;11.918;2023-07-30T03:55:53;26.20;90.10
39315;DHT22;28703;44.412;11.918;2023-07-30T03:58:19;26.20;90.10
39315;DHT22;28703;44.412;11.918;2023-07-30T04:00:44;26.10;90.10
39315;DHT22;28703;44.412;11.918;2023-07-30T04:03:10;26.10;90.10
39315;DHT22;28703;44.412;11.918;2023-07-30T04:05:36;26.10;90.20
39315;DHT22;28703;44.412;11.918;2023-07-30T04:08:02;26.10;90.10
39315;DHT22;28703;44.412;11.918;2023-07-30T04:10:28;26.10;90.10
39315;DHT22;28703;44.412;11.918;2023-07-30T04:12:55;26.10;90.20
39315;DHT22;28703;44.412;11.918;2023-07-30T04:15:21;26.10;90.20
39315;DHT22;28703;44.412;11.918;2023-07-30T04:17:46;26.10;90.30
39315;DHT22;28703;44.412;11.918;2023-07-30T04:20:12;26.10;90.30
39315;DHT22;28703;44.412;11.918;2023-07-30T04:22:38;26.10;90.30
39315;DHT22;28703;44.412;11.918;2023-07-30T04:25:08;26.10;90.30
39315;DHT22;28703;44.412;11.918;2023-07-30T04:27:33;26.10;90.30
39315;DHT22;28703;44.412;11.918;2023-07-30T04:30:00;26.10;90.20
39315;DHT22;28703;44.412;11.918;2023-07-30T04:32:26;26.20;90.20
39315;DHT22;28703;44.412;11.918;2023-07-30T04:34:51;26.10;90.10
39315;DHT22;28703;44.412;11.918;2023-07-30T04:37:17;26.20;90.00
39315;DHT22;28703;44.412;11.918;2023-07-30T04:39:43;26.10;89.90
39315;DHT22;28703;44.412;11.918;2023-07-30T04:42:09;26.10;89.90
39315;DHT22;28703;44.412;11.918;2023-07-30T04:44:35;26.10;89.80
39315;DHT22;28703;44.412;11.918;2023-07-30T04:47:10;26.00;89.60
39315;DHT22;28703;44.412;11.918;2023-07-30T04:49:36;26.10;89.60
39315;DHT22;28703;44.412;11.918;2023-07-30T04:52:03;26.00;89.50
39315;DHT22;28703;44.412;11.918;2023-07-30T04:54:29;26.10;89.60
39315;DHT22;28703;44.412;11.918;2023-07-30T04:56:55;26.10;89.60
39315;DHT22;28703;44.412;11.918;2023-07-30T04:59:21;26.00;89.70
39315;DHT22;28703;44.412;11.918;2023-07-30T05:01:47;26.00;89.70
39315;DHT22;28703;44.412;11.918;2023-07-30T05:04:13;26.00;89.90
39315;DHT22;28703;44.412;11.918;2023-07-30T05:06:38;26.00;89.90
39315;DHT22;28703;44.412;11.918;2023-07-30T05:09:04;26.00;90.00
39315;DHT22;28703;44.412;11.918;2023-07-30T05:11:30;26.00;90.00
39315;DHT22;28703;44.412;11.918;2023-07-30T05:13:56;26.00;90.10
39315;DHT22;28703;44.412;11.918;2023-07-30T05:16:22;26.10;90.20
39315;DHT22;28703;44.412;11.918;2023-07-30T05:18:48;26.10;90.40
39315;DHT22;28703;44.412;11.918;2023-07-30T05:21:14;26.10;90.40
39315;DHT22;28703;44.412;11.918;2023-07-30T05:23:40;26.10;90.70
39315;DHT22;28703;44.412;11.918;2023-07-30T05:26:06;26.10;90.70
39315;DHT22;28703;44.412;11.918;2023-07-30T05:28:31;26.10;90.90
39315;DHT22;28703;44.412;11.918;2023-07-30T05:30:58;26.20;91.10
39315;DHT22;28703;44.412;11.918;2023-07-30T05:33:24;26.20;91.60
39315;DHT22;28703;44.412;11.918;2023-07-30T05:35:50;26.20;91.60
39315;DHT22;28703;44.412;11.918;2023-07-30T05:38:16;26.20;91.70
39315;DHT22;28703;44.412;11.918;2023-07-30T05:40:43;26.20;91.90
39315;DHT22;28703;44.412;11.918;2023-07-30T05:43:09;26.20;92.00
39315;DHT22;28703;44.412;11.918;2023-07-30T05:45:35;26.20;92.10
39315;DHT22;28703;44.412;11.918;2023-07-30T05:48:01;26.30;92.20
39315;DHT22;28703;44.412;11.918;2023-07-30T05:50:26;26.30;92.40
39315;DHT22;28703;44.412;11.918;2023-07-30T05:52:52;26.30;92.50
39315;DHT22;28703;44.412;11.918;2023-07-30T05:55:18;26.30;92.80
39315;DHT22;28703;44.412;11.918;2023-07-30T05:57:44;26.30;92.90
39315;DHT22;28703;44.412;11.918;2023-07-30T06:00:10;26.20;92.70
39315;DHT22;28703;44.412;11.918;2023-07-30T06:02:38;26.30;92.80
39315;DHT22;28703;44.412;11.918;2023-07-30T06:05:04;26.30;93.00
39315;DHT22;28703;44.412;11.918;2023-07-30T06:07:30;26.30;93.20
39315;DHT22;28703;44.412;11.918;2023-07-30T06:09:56;26.20;93.20
39315;DHT22;28703;44.412;11.918;2023-07-30T06:12:22;26.20;93.10
39315;DHT22;28703;44.412;11.918;2023-07-30T06:14:48;26.30;93.20
39315;DHT22;28703;44.412;11.918;2023-07-30T06:17:14;26.30;93.20
39315;DHT22;28703;44.412;11.918;2023-07-30T06:19:39;26.30;93.10
39315;DHT22;28703;44.412;11.918;2023-07-30T06:22:05;26.30;93.10
39315;DHT22;28703;44.412;11.918;2023-07-30T06:24:31;26.30;93.30
39315;DHT22;28703;44.412;11.918;2023-07-30T06:26:57;26.40;93.40
39315;DHT22;28703;44.412;11.918;2023-07-30T06:29:23;26.40;93.30
39315;DHT22;28703;44.412;11.918;2023-07-30T06:31:49;26.40;93.30
39315;DHT22;28703;44.412;11.918;2023-07-30T06:34:15;26.50;93.20
39315;DHT22;28703;44.412;11.918;2023-07-30T06:36:40;26.50;93.10
39315;DHT22;28703;44.412;11.918;2023-07-30T06:39:06;26.50;93.00
39315;DHT22;28703;44.412;11.918;2023-07-30T06:41:32;26.60;92.90
39315;DHT22;28703;44.412;11.918;2023-07-30T06:43:59;26.50;92.80
39315;DHT22;28703;44.412;11.918;2023-07-30T06:46:25;26.60;92.80
39315;DHT22;28703;44.412;11.918;2023-07-30T06:48:51;26.60;92.80
39315;DHT22;28703;44.412;11.918;2023-07-30T06:51:19;26.70;92.80
39315;DHT22;28703;44.412;11.918;2023-07-30T06:53:45;26.70;92.70
39315;DHT22;28703;44.412;11.918;2023-07-30T06:56:11;26.70;92.60
39315;DHT22;28703;44.412;11.918;2023-07-30T06:58:37;26.70;92.60
39315;DHT22;28703;44.412;11.918;2023-07-30T07:01:03;26.70;92.50
39315;DHT22;28703;44.412;11.918;2023-07-30T07:03:29;26.70;92.40
39315;DHT22;28703;44.412;11.918;2023-07-30T07:05:55;26.70;92.40
39315;DHT22;28703;44.412;11.918;2023-07-30T07:08:22;26.70;92.10
39315;DHT22;28703;44.412;11.918;2023-07-30T07:10:48;26.70;92.20
39315;DHT22;28703;44.412;11.918;2023-07-30T07:13:14;26.70;92.20
39315;DHT22;28703;44.412;11.918;2023-07-30T07:15:41;26.80;92.30
39315;DHT22;28703;44.412;11.918;2023-07-30T07:18:07;26.70;92.30
39315;DHT22;28703;44.412;11.918;2023-07-30T07:20:33;26.70;92.10
39315;DHT22;28703;44.412;11.918;2023-07-30T07:22:59;26.70;92.00
39315;DHT22;28703;44.412;11.918;2023-07-30T07:25:25;26.80;92.00
39315;DHT22;28703;44.412;11.918;2023-07-30T07:27:51;26.80;92.10
39315;DHT22;28703;44.412;11.918;2023-07-30T07:30:17;26.90;92.30
39315;DHT22;28703;44.412;11.918;2023-07-30T07:32:43;26.90;92.30
39315;DHT22;28703;44.412;11.918;2023-07-30T07:35:09;26.90;92.40
39315;DHT22;28703;44.412;11.918;2023-07-30T07:37:35;27.00;92.40
39315;DHT22;28703;44.412;11.918;2023-07-30T07:40:01;27.00;92.40
39315;DHT22;28703;44.412;11.918;2023-07-30T07:42:29;27.10;92.50
39315;DHT22;28703;44.412;11.918;2023-07-30T07:44:56;27.10;92.50
39315;DHT22;28703;44.412;11.918;2023-07-30T07:47:22;27.10;92.40
39315;DHT22;28703;44.412;11.918;2023-07-30T07:49:47;27.10;92.30
39315;DHT22;28703;44.412;11.918;2023-07-30T07:52:15;27.20;92.40
39315;DHT22;28703;44.412;11.918;2023-07-30T07:54:41;27.20;92.50
39315;DHT22;28703;44.412;11.918;2023-07-30T07:57:07;27.20;92.40
39315;DHT22;28703;44.412;11.918;2023-07-30T07:59:34;27.30;92.40
39315;DHT22;28703;44.412;11.918;2023-07-30T08:02:00;27.30;92.40
39315;DHT22;28703;44.412;11.918;2023-07-30T08:04:26;27.30;92.40
39315;DHT22;28703;44.412;11.918;2023-07-30T08:06:52;27.30;92.30
39315;DHT22;28703;44.412;11.918;2023-07-30T08:09:17;27.30;92.50
39315;DHT22;28703;44.412;11.918;2023-07-30T08:11:43;27.30;92.60
39315;DHT22;28703;44.412;11.918;2023-07-30T08:14:09;27.30;92.50
39315;DHT22;28703;44.412;11.918;2023-07-30T08:16:35;27.30;92.30
39315;DHT22;28703;44.412;11.918;2023-07-30T08:19:01;27.40;92.40
39315;DHT22;28703;44.412;11.918;2023-07-30T08:21:27;27.40;92.40
39315;DHT22;28703;44.412;11.918;2023-07-30T08:23:52;27.40;92.30
39315;DHT22;28703;44.412;11.918;2023-07-30T08:26:19;27.40;92.20
39315;DHT22;28703;44.412;11.918;2023-07-30T08:28:44;27.40;92.50
39315;DHT22;28703;44.412;11.918;2023-07-30T08:31:10;27.40;92.50
39315;DHT22;28703;44.412;11.918;2023-07-30T08:33:36;27.50;92.50
39315;DHT22;28703;44.412;11.918;2023-07-30T08:36:02;27.50;92.50
39315;DHT22;28703;44.412;11.918;2023-07-30T08:38:28;27.50;92.40
39315;DHT22;28703;44.412;11.918;2023-07-30T08:40:55;27.60;92.40
39315;DHT22;28703;44.412;11.918;2023-07-30T08:43:21;27.60;92.30
39315;DHT22;28703;44.412;11.918;2023-07-30T08:45:47;27.70;92.30
39315;DHT22;28703;44.412;11.918;2023-07-30T08:48:13;27.70;92.40
39315;DHT22;28703;44.412;11.918;2023-07-30T08:50:39;27.70;92.40
39315;DHT22;28703;44.412;11.918;2023-07-30T08:53:07;27.80;92.30
39315;DHT22;28703;44.412;11.918;2023-07-30T08:55:33;27.90;92.30
39315;DHT22;28703;44.412;11.918;2023-07-30T08:58:04;27.90;92.20
39315;DHT22;28703;44.412;11.918;2023-07-30T09:00:34;27.90;92.20
39315;DHT22;28703;44.412;11.918;2023-07-30T09:03:03;27.90;92.40
39315;DHT22;28703;44.412;11.918;2023-07-30T09:05:30;27.90;92.50
39315;DHT22;28703;44.412;11.918;2023-07-30T09:07:57;27.90;92.40
39315;DHT22;28703;44.412;11.918;2023-07-30T09:10:23;28.00;92.40
39315;DHT22;28703;44.412;11.918;2023-07-30T09:12:57;28.00;92.30
39315;DHT22;28703;44.412;11.918;2023-07-30T09:15:35;28.00;92.20
39315;DHT22;28703;44.412;11.918;2023-07-30T09:18:03;28.10;92.30
39315;DHT22;28703;44.412;11.918;2023-07-30T09:20:37;28.20;92.30
39315;DHT22;28703;44.412;11.918;2023-07-30T09:23:05;28.20;92.20
39315;DHT22;28703;44.412;11.918;2023-07-30T09:25:31;28.20;92.10
39315;DHT22;28703;44.412;11.918;2023-07-30T09:27:57;28.30;92.10
39315;DHT22;28703;44.412;11.918;2023-07-30T09:30:26;28.40;92.10
39315;DHT22;28703;44.412;11.918;2023-07-30T09:32:57;28.40;92.00
39315;DHT22;28703;44.412;11.918;2023-07-30T09:35:26;28.50;91.90
39315;DHT22;28703;44.412;11.918;2023-07-30T09:38:03;28.60;92.00
39315;DHT22;28703;44.412;11.918;2023-07-30T09:40:36;28.60;91.60
39315;DHT22;28703;44.412;11.918;2023-07-30T09:43:05;28.60;91.60
39315;DHT22;28703;44.412;11.918;2023-07-30T09:45:35;28.60;91.60
39315;DHT22;28703;44.412;11.918;2023-07-30T09:48:03;28.60;91.50
39315;DHT22;28703;44.412;11.918;2023-07-30T09:50:31;28.70;91.40
39315;DHT22;28703;44.412;11.918;2023-07-30T09:53:01;28.70;91.30
39315;DHT22;28703;44.412;11.918;2023-07-30T09:55:27;28.80;91.10
39315;DHT22;28703;44.412;11.918;2023-07-30T09:57:53;28.80;91.10
39315;DHT22;28703;44.412;11.918;2023-07-30T10:00:19;28.80;91.10
39315;DHT22;28703;44.412;11.918;2023-07-30T10:02:46;28.90;91.00
39315;DHT22;28703;44.412;11.918;2023-07-30T10:05:18;29.00;91.10
39315;DHT22;28703;44.412;11.918;2023-07-30T10:07:56;29.00;90.90
39315;DHT22;28703;44.412;11.918;2023-07-30T10:10:25;29.10;90.80
39315;DHT22;28703;44.412;11.918;2023-07-30T10:12:53;29.10;90.80
39315;DHT22;28703;44.412;11.918;2023-07-30T10:15:21;29.10;90.60
39315;DHT22;28703;44.412;11.918;2023-07-30T10:17:52;29.10;90.50
39315;DHT22;28703;44.412;11.918;2023-07-30T10:20:26;29.10;90.40
39315;DHT22;28703;44.412;11.918;2023-07-30T10:22:57;29.20;90.40
39315;DHT22;28703;44.412;11.918;2023-07-30T10:25:46;29.30;90.40
39315;DHT22;28703;44.412;11.918;2023-07-30T10:28:32;29.30;90.00
39315;DHT22;28703;44.412;11.918;2023-07-30T10:31:01;29.30;89.80
39315;DHT22;28703;44.412;11.918;2023-07-30T10:36:13;29.30;89.80
39315;DHT22;28703;44.412;11.918;2023-07-30T10:38:39;29.30;90.00
39315;DHT22;28703;44.412;11.918;2023-07-30T10:41:08;29.30;89.90
39315;DHT22;28703;44.412;11.918;2023-07-30T10:43:50;29.30;89.90
39315;DHT22;28703;44.412;11.918;2023-07-30T10:46:17;29.50;89.60
39315;DHT22;28703;44.412;11.918;2023-07-30T10:48:45;29.50;89.80
39315;DHT22;28703;44.412;11.918;2023-07-30T10:51:16;29.60;89.70
39315;DHT22;28703;44.412;11.918;2023-07-30T10:53:43;29.60;89.70
39315;DHT22;28703;44.412;11.918;2023-07-30T10:56:10;29.60;89.90
39315;DHT22;28703;44.412;11.918;2023-07-30T10:58:37;29.70;88.60
39315;DHT22;28703;44.412;11.918;2023-07-30T11:01:04;29.70;88.60
39315;DHT22;28703;44.412;11.918;2023-07-30T11:03:30;29.70;88.40
39315;DHT22;28703;44.412;11.918;2023-07-30T11:06:00;29.70;88.50
39315;DHT22;28703;44.412;11.918;2023-07-30T11:08:39;29.70;88.50
39315;DHT22;28703;44.412;11.918;2023-07-30T11:11:07;29.70;88.20
39315;DHT22;28703;44.412;11.918;2023-07-30T11:13:38;29.80;88.60
39315;DHT22;28703;44.412;11.918;2023-07-30T11:16:06;29.80;88.60
39315;DHT22;28703;44.412;11.918;2023-07-30T11:18:36;29.90;88.50
39315;DHT22;28703;44.412;11.918;2023-07-30T11:21:10;29.90;88.20
39315;DHT22;28703;44.412;11.918;2023-07-30T11:23:38;30.00;88.50
39315;DHT22;28703;44.412;11.918;2023-07-30T11:26:06;30.10;88.60
39315;DHT22;28703;44.412;11.918;2023-07-30T11:28:36;30.20;88.30
39315;DHT22;28703;44.412;11.918;2023-07-30T11:31:08;30.30;88.30
39315;DHT22;28703;44.412;11.918;2023-07-30T11:33:45;30.40;88.10
39315;DHT22;28703;44.412;11.918;2023-07-30T11:36:17;30.50;87.70
39315;DHT22;28703;44.412;11.918;2023-07-30T11:38:44;30.50;88.00
39315;DHT22;28703;44.412;11.918;2023-07-30T11:41:11;30.60;87.40
39315;DHT22;28703;44.412;11.918;2023-07-30T11:43:40;30.60;86.80
39315;DHT22;28703;44.412;11.918;2023-07-30T11:46:08;30.60;86.60
39315;DHT22;28703;44.412;11.918;2023-07-30T11:48:34;30.60;86.70
39315;DHT22;28703;44.412;11.918;2023-07-30T11:51:01;30.70;86.50
39315;DHT22;28703;44.412;11.918;2023-07-30T11:53:48;30.70;86.80
39315;DHT22;28703;44.412;11.918;2023-07-30T11:56:26;30.80;86.20
39315;DHT22;28703;44.412;11.918;2023-07-30T11:58:57;30.90;86.30
39315;DHT22;28703;44.412;11.918;2023-07-30T12:01:28;31.00;86.50
39315;DHT22;28703;44.412;11.918;2023-07-30T12:03:57;31.00;86.80
39315;DHT22;28703;44.412;11.918;2023-07-30T12:06:23;31.20;86.50
39315;DHT22;28703;44.412;11.918;2023-07-30T12:08:50;31.30;86.90
39315;DHT22;28703;44.412;11.918;2023-07-30T12:11:18;31.50;87.20
39315;DHT22;28703;44.412;11.918;2023-07-30T12:13:46;31.60;87.40
39315;DHT22;28703;44.412;11.918;2023-07-30T12:16:13;31.80;87.40
39315;DHT22;28703;44.412;11.918;2023-07-30T12:18:39;31.90;87.20
39315;DHT22;28703;44.412;11.918;2023-07-30T12:21:07;32.10;87.10
39315;DHT22;28703;44.412;11.918;2023-07-30T12:23:34;32.30;86.80
39315;DHT22;28703;44.412;11.918;2023-07-30T12:26:02;32.50;86.90
39315;DHT22;28703;44.412;11.918;2023-07-30T12:28:31;32.60;86.30
39315;DHT22;28703;44.412;11.918;2023-07-30T12:30:57;32.80;86.00
39315;DHT22;28703;44.412;11.918;2023-07-30T12:33:23;32.90;85.70
39315;DHT22;28703;44.412;11.918;2023-07-30T12:35:48;33.00;85.30
39315;DHT22;28703;44.412;11.918;2023-07-30T12:38:15;33.10;84.60
39315;DHT22;28703;44.412;11.918;2023-07-30T12:40:42;33.20;84.50
39315;DHT22;28703;44.412;11.918;2023-07-30T12:43:08;33.30;84.10
39315;DHT22;28703;44.412;11.918;2023-07-30T12:45:34;33.40;83.60
39315;DHT22;28703;44.412;11.918;2023-07-30T12:48:01;33.40;83.70
39315;DHT22;28703;44.412;11.918;2023-07-30T12:50:27;33.40;82.90
39315;DHT22;28703;44.412;11.918;2023-07-30T12:52:52;33.30;81.50
39315;DHT22;28703;44.412;11.918;2023-07-30T12:55:19;33.10;81.80
39315;DHT22;28703;44.412;11.918;2023-07-30T12:57:45;33.10;81.80
39315;DHT22;28703;44.412;11.918;2023-07-30T13:00:11;33.00;81.90
39315;DHT22;28703;44.412;11.918;2023-07-30T13:02:37;33.00;82.10
39315;DHT22;28703;44.412;11.918;2023-07-30T13:05:04;32.80;82.20
39315;DHT22;28703;44.412;11.918;2023-07-30T13:07:30;32.90;82.70
39315;DHT22;28703;44.412;11.918;2023-07-30T13:10:06;33.00;82.50
39315;DHT22;28703;44.412;11.918;2023-07-30T13:12:33;33.00;82.00
39315;DHT22;28703;44.412;11.918;2023-07-30T13:15:00;33.00;82.40
39315;DHT22;28703;44.412;11.918;2023-07-30T13:17:26;33.10;82.30
39315;DHT22;28703;44.412;11.918;2023-07-30T13:19:52;33.20;82.30
39315;DHT22;28703;44.412;11.918;2023-07-30T13:22:17;33.30;82.50
39315;DHT22;28703;44.412;11.918;2023-07-30T13:24:43;33.40;82.40
39315;DHT22;28703;44.412;11.918;2023-07-30T13:27:09;33.50;82.50
39315;DHT22;28703;44.412;11.918;2023-07-30T13:29:36;33.60;82.20
39315;DHT22;28703;44.412;11.918;2023-07-30T13:32:02;33.80;82.20
39315;DHT22;28703;44.412;11.918;2023-07-30T13:34:28;33.90;82.20
39315;DHT22;28703;44.412;11.918;2023-07-30T13:36:54;34.10;82.30
39315;DHT22;28703;44.412;11.918;2023-07-30T13:39:21;34.20;81.80
39315;DHT22;28703;44.412;11.918;2023-07-30T13:41:49;34.30;81.40
39315;DHT22;28703;44.412;11.918;2023-07-30T13:44:15;34.50;81.80
39315;DHT22;28703;44.412;11.918;2023-07-30T13:46:41;34.60;81.80
39315;DHT22;28703;44.412;11.918;2023-07-30T13:49:07;34.70;82.00
39315;DHT22;28703;44.412;11.918;2023-07-30T13:51:33;34.80;81.70
39315;DHT22;28703;44.412;11.918;2023-07-30T13:54:00;35.00;81.40
39315;DHT22;28703;44.412;11.918;2023-07-30T13:56:30;35.10;81.20
39315;DHT22;28703;44.412;11.918;2023-07-30T13:58:56;35.20;81.00
39315;DHT22;28703;44.412;11.918;2023-07-30T14:01:22;35.20;80.70
39315;DHT22;28703;44.412;11.918;2023-07-30T14:03:48;35.30;80.30
39315;DHT22;28703;44.412;11.918;2023-07-30T14:06:14;35.40;80.10
39315;DHT22;28703;44.412;11.918;2023-07-30T14:08:40;35.50;79.80
39315;DHT22;28703;44.412;11.918;2023-07-30T14:11:06;35.70;79.80
39315;DHT22;28703;44.412;11.918;2023-07-30T14:13:32;35.70;79.70
39315;DHT22;28703;44.412;11.918;2023-07-30T14:15:58;35.80;79.60
39315;DHT22;28703;44.412;11.918;2023-07-30T14:18:24;35.90;79.50
39315;DHT22;28703;44.412;11.918;2023-07-30T14:20:51;36.00;79.50
39315;DHT22;28703;44.412;11.918;2023-07-30T14:23:18;36.20;79.40
39315;DHT22;28703;44.412;11.918;2023-07-30T14:25:44;36.20;79.70
39315;DHT22;28703;44.412;11.918;2023-07-30T14:28:10;36.30;80.40
39315;DHT22;28703;44.412;11.918;2023-07-30T14:30:36;36.50;80.90
39315;DHT22;28703;44.412;11.918;2023-07-30T14:33:03;36.50;81.10
39315;DHT22;28703;44.412;11.918;2023-07-30T14:35:29;36.60;81.30
39315;DHT22;28703;44.412;11.918;2023-07-30T14:37:55;36.60;81.30
39315;DHT22;28703;44.412;11.918;2023-07-30T14:40:21;36.70;81.10
39315;DHT22;28703;44.412;11.918;2023-07-30T14:42:47;36.60;81.20
39315;DHT22;28703;44.412;11.918;2023-07-30T14:45:13;36.50;81.30
39315;DHT22;28703;44.412;11.918;2023-07-30T14:47:39;36.40;81.70
39315;DHT22;28703;44.412;11.918;2023-07-30T14:50:06;36.40;82.10
39315;DHT22;28703;44.412;11.918;2023-07-30T14:52:32;36.40;82.10
39315;DHT22;28703;44.412;11.918;2023-07-30T14:54:58;36.40;81.70
39315;DHT22;28703;44.412;11.918;2023-07-30T14:57:24;36.50;81.70
39315;DHT22;28703;44.412;11.918;2023-07-30T14:59:50;36.60;81.20
39315;DHT22;28703;44.412;11.918;2023-07-30T15:02:15;36.70;81.10
39315;DHT22;28703;44.412;11.918;2023-07-30T15:04:41;36.60;81.00
39315;DHT22;28703;44.412;11.918;2023-07-30T15:07:07;36.70;81.20
39315;DHT22;28703;44.412;11.918;2023-07-30T15:09:35;36.80;81.40
39315;DHT22;28703;44.412;11.918;2023-07-30T15:12:02;37.00;81.40
39315;DHT22;28703;44.412;11.918;2023-07-30T15:14:28;37.10;81.20
39315;DHT22;28703;44.412;11.918;2023-07-30T15:16:54;37.00;81.00
39315;DHT22;28703;44.412;11.918;2023-07-30T15:19:22;37.00;80.80